sensor_id;sensor_type;location;lat;lon;timestamp;P1;durP1;ratioP1;P2;durP2;ratioP2
21091;SDS011;10704;42.678;23.288;2022-12-07T00:01:37;41.30;;;22.58;;
21091;SDS011;10704;42.678;23.288;2022-12-07T00:04:05;43.17;;;21.75;;
21091;SDS011;10704;42.678;23.288;2022-12-07T00:06:36;46.10;;;23.10;;
21091;SDS011;10704;42.678;23.288;2022-12-07T00:09:07;42.78;;;22.00;;
21091;SDS011;10704;42.678;23.288;2022-12-07T00:15:08;38.80;;;21.70;;
21091;SDS011;10704;42.678;23.288;2022-12-07T00:20:30;41.95;;;22.13;;
21091;SDS011;10704;42.678;23.288;2022-12-07T00:22:56;48.15;;;23.92;;
21091;SDS011;10704;42.678;23.288;2022-12-07T00:25:22;46.22;;;23.33;;
21091;SDS011;10704;42.678;23.288;2022-12-07T00:27:48;51.95;;;23.67;;
21091;SDS011;10704;42.678;23.288;2022-12-07T00:30:15;43.33;;;23.05;;
21091;SDS011;10704;42.678;23.288;2022-12-07T00:32:41;46.63;;;23.63;;
21091;SDS011;10704;42.678;23.288;2022-12-07T00:35:07;46.95;;;24.95;;
21091;SDS011;10704;42.678;23.288;2022-12-07T00:37:33;50.95;;;25.23;;
21091;SDS011;10704;42.678;23.288;2022-12-07T00:39:59;46.67;;;24.30;;
21091;SDS011;10704;42.678;23.288;2022-12-07T00:42:24;40.75;;;22.83;;
21091;SDS011;10704;42.678;23.288;2022-12-07T00:44:50;36.80;;;20.15;;
21091;SDS011;10704;42.678;23.288;2022-12-07T00:47:16;41.03;;;21.08;;
21091;SDS011;10704;42.678;23.288;2022-12-07T00:49:42;39.55;;;19.98;;
21091;SDS011;10704;42.678;23.288;2022-12-07T00:52:08;42.58;;;21.13;;
21091;SDS011;10704;42.678;23.288;2022-12-07T00:58:21;41.97;;;20.55;;
21091;SDS011;10704;42.678;23.288;2022-12-07T01:01:08;39.75;;;20.67;;
21091;SDS011;10704;42.678;23.288;2022-12-07T01:03:35;55.90;;;27.98;;
21091;SDS011;10704;42.678;23.288;2022-12-07T01:06:02;59.13;;;31.20;;
21091;SDS011;10704;42.678;23.288;2022-12-07T01:08:28;57.47;;;31.23;;
21091;SDS011;10704;42.678;23.288;2022-12-07T01:10:58;56.30;;;29.50;;
21091;SDS011;10704;42.678;23.288;2022-12-07T01:16:31;55.20;;;28.02;;
21091;SDS011;10704;42.678;23.288;2022-12-07T01:18:58;53.75;;;28.10;;
21091;SDS011;10704;42.678;23.288;2022-12-07T01:21:26;57.53;;;29.80;;
21091;SDS011;10704;42.678;23.288;2022-12-07T01:31:29;54.90;;;28.85;;
21091;SDS011;10704;42.678;23.288;2022-12-07T01:33:57;59.03;;;28.58;;
21091;SDS011;10704;42.678;23.288;2022-12-07T01:36:24;50.83;;;26.58;;
21091;SDS011;10704;42.678;23.288;2022-12-07T01:42:40;51.05;;;25.40;;
21091;SDS011;10704;42.678;23.288;2022-12-07T01:47:56;53.00;;;27.08;;
21091;SDS011;10704;42.678;23.288;2022-12-07T01:50:24;53.03;;;27.25;;
21091;SDS011;10704;42.678;23.288;2022-12-07T01:52:53;51.20;;;28.02;;
21091;SDS011;10704;42.678;23.288;2022-12-07T01:55:21;49.55;;;24.80;;
21091;SDS011;10704;42.678;23.288;2022-12-07T01:57:48;48.92;;;25.23;;
21091;SDS011;10704;42.678;23.288;2022-12-07T02:00:17;46.05;;;24.80;;
21091;SDS011;10704;42.678;23.288;2022-12-07T02:02:45;46.10;;;24.05;;
21091;SDS011;10704;42.678;23.288;2022-12-07T02:05:12;51.95;;;26.60;;
21091;SDS011;10704;42.678;23.288;2022-12-07T02:07:39;45.22;;;23.70;;
21091;SDS011;10704;42.678;23.288;2022-12-07T02:29:13;45.13;;;22.67;;
21091;SDS011;10704;42.678;23.288;2022-12-07T02:31:43;45.75;;;23.55;;
21091;SDS011;10704;42.678;23.288;2022-12-07T02:34:49;47.88;;;23.27;;
21091;SDS011;10704;42.678;23.288;2022-12-07T02:37:23;46.67;;;23.00;;
21091;SDS011;10704;42.678;23.288;2022-12-07T02:40:23;45.95;;;25.08;;
21091;SDS011;10704;42.678;23.288;2022-12-07T02:42:58;48.30;;;24.15;;
21091;SDS011;10704;42.678;23.288;2022-12-07T02:45:31;45.20;;;22.92;;
21091;SDS011;10704;42.678;23.288;2022-12-07T02:48:02;46.63;;;23.45;;
21091;SDS011;10704;42.678;23.288;2022-12-07T02:50:30;44.88;;;22.95;;
21091;SDS011;10704;42.678;23.288;2022-12-07T02:52:56;45.83;;;24.23;;
21091;SDS011;10704;42.678;23.288;2022-12-07T02:55:25;48.42;;;23.80;;
21091;SDS011;10704;42.678;23.288;2022-12-07T03:04:28;46.13;;;24.17;;
21091;SDS011;10704;42.678;23.288;2022-12-07T03:07:06;49.33;;;22.88;;
21091;SDS011;10704;42.678;23.288;2022-12-07T03:20:03;42.85;;;24.27;;
21091;SDS011;10704;42.678;23.288;2022-12-07T03:22:30;49.15;;;25.00;;
21091;SDS011;10704;42.678;23.288;2022-12-07T03:35:49;42.08;;;22.98;;
21091;SDS011;10704;42.678;23.288;2022-12-07T03:38:38;42.70;;;22.67;;
21091;SDS011;10704;42.678;23.288;2022-12-07T03:41:17;43.03;;;24.60;;
21091;SDS011;10704;42.678;23.288;2022-12-07T03:43:50;48.15;;;24.27;;
21091;SDS011;10704;42.678;23.288;2022-12-07T03:49:13;46.92;;;23.08;;
21091;SDS011;10704;42.678;23.288;2022-12-07T03:54:59;50.85;;;26.67;;
21091;SDS011;10704;42.678;23.288;2022-12-07T03:57:20;54.95;;;26.80;;
21091;SDS011;10704;42.678;23.288;2022-12-07T03:59:48;51.75;;;26.00;;
21091;SDS011;10704;42.678;23.288;2022-12-07T04:02:14;48.78;;;25.55;;
21091;SDS011;10704;42.678;23.288;2022-12-07T04:04:41;42.33;;;22.92;;
21091;SDS011;10704;42.678;23.288;2022-12-07T04:07:08;51.72;;;27.23;;
21091;SDS011;10704;42.678;23.288;2022-12-07T04:09:34;53.03;;;29.23;;
21091;SDS011;10704;42.678;23.288;2022-12-07T04:12:00;58.65;;;32.15;;
21091;SDS011;10704;42.678;23.288;2022-12-07T04:14:26;49.08;;;26.30;;
21091;SDS011;10704;42.678;23.288;2022-12-07T04:16:53;49.03;;;26.08;;
21091;SDS011;10704;42.678;23.288;2022-12-07T04:19:24;47.92;;;25.20;;
21091;SDS011;10704;42.678;23.288;2022-12-07T04:21:52;56.65;;;27.67;;
21091;SDS011;10704;42.678;23.288;2022-12-07T04:24:18;47.97;;;25.45;;
21091;SDS011;10704;42.678;23.288;2022-12-07T04:26:44;47.03;;;24.17;;
21091;SDS011;10704;42.678;23.288;2022-12-07T04:29:11;47.95;;;25.20;;
21091;SDS011;10704;42.678;23.288;2022-12-07T04:31:37;50.05;;;24.95;;
21091;SDS011;10704;42.678;23.288;2022-12-07T04:34:04;50.35;;;25.40;;
21091;SDS011;10704;42.678;23.288;2022-12-07T04:36:30;52.90;;;27.10;;
21091;SDS011;10704;42.678;23.288;2022-12-07T04:38:57;53.03;;;29.63;;
21091;SDS011;10704;42.678;23.288;2022-12-07T04:41:23;55.47;;;28.23;;
21091;SDS011;10704;42.678;23.288;2022-12-07T04:43:59;50.65;;;26.67;;
21091;SDS011;10704;42.678;23.288;2022-12-07T04:46:27;54.78;;;27.17;;
21091;SDS011;10704;42.678;23.288;2022-12-07T04:48:54;49.58;;;25.92;;
21091;SDS011;10704;42.678;23.288;2022-12-07T04:51:24;54.33;;;28.20;;
21091;SDS011;10704;42.678;23.288;2022-12-07T04:53:52;52.35;;;26.98;;
21091;SDS011;10704;42.678;23.288;2022-12-07T04:56:18;53.58;;;26.30;;
21091;SDS011;10704;42.678;23.288;2022-12-07T04:58:45;50.53;;;25.90;;
21091;SDS011;10704;42.678;23.288;2022-12-07T05:01:12;51.95;;;25.42;;
21091;SDS011;10704;42.678;23.288;2022-12-07T05:03:41;55.35;;;25.85;;
21091;SDS011;10704;42.678;23.288;2022-12-07T05:06:08;52.10;;;25.73;;
21091;SDS011;10704;42.678;23.288;2022-12-07T05:08:35;52.10;;;26.08;;
21091;SDS011;10704;42.678;23.288;2022-12-07T05:11:01;51.78;;;27.50;;
21091;SDS011;10704;42.678;23.288;2022-12-07T05:13:29;57.88;;;28.02;;
21091;SDS011;10704;42.678;23.288;2022-12-07T05:15:55;50.97;;;25.77;;
21091;SDS011;10704;42.678;23.288;2022-12-07T05:18:21;57.42;;;27.60;;
21091;SDS011;10704;42.678;23.288;2022-12-07T05:20:47;52.70;;;26.10;;
21091;SDS011;10704;42.678;23.288;2022-12-07T05:23:13;65.47;;;27.90;;
21091;SDS011;10704;42.678;23.288;2022-12-07T05:25:39;55.25;;;27.88;;
21091;SDS011;10704;42.678;23.288;2022-12-07T05:28:05;53.17;;;26.10;;
21091;SDS011;10704;42.678;23.288;2022-12-07T05:30:31;49.33;;;26.85;;
21091;SDS011;10704;42.678;23.288;2022-12-07T05:40:32;51.55;;;25.45;;
21091;SDS011;10704;42.678;23.288;2022-12-07T05:46:45;56.03;;;28.20;;
21091;SDS011;10704;42.678;23.288;2022-12-07T05:49:11;59.72;;;30.33;;
21091;SDS011;10704;42.678;23.288;2022-12-07T05:51:37;54.13;;;28.15;;
21091;SDS011;10704;42.678;23.288;2022-12-07T05:54:14;57.63;;;29.15;;
21091;SDS011;10704;42.678;23.288;2022-12-07T06:00:27;46.95;;;24.17;;
21091;SDS011;10704;42.678;23.288;2022-12-07T06:18:01;47.17;;;22.10;;
21091;SDS011;10704;42.678;23.288;2022-12-07T06:20:27;46.90;;;24.17;;
21091;SDS011;10704;42.678;23.288;2022-12-07T06:22:53;54.67;;;24.88;;
21091;SDS011;10704;42.678;23.288;2022-12-07T06:25:19;50.28;;;25.00;;
21091;SDS011;10704;42.678;23.288;2022-12-07T06:27:45;48.50;;;24.08;;
21091;SDS011;10704;42.678;23.288;2022-12-07T06:30:13;46.88;;;23.52;;
21091;SDS011;10704;42.678;23.288;2022-12-07T06:32:39;53.25;;;26.17;;
21091;SDS011;10704;42.678;23.288;2022-12-07T06:37:50;54.33;;;27.10;;
21091;SDS011;10704;42.678;23.288;2022-12-07T06:40:15;48.88;;;26.02;;
21091;SDS011;10704;42.678;23.288;2022-12-07T06:42:41;46.17;;;25.13;;
21091;SDS011;10704;42.678;23.288;2022-12-07T06:47:56;55.47;;;26.90;;
21091;SDS011;10704;42.678;23.288;2022-12-07T06:50:22;58.53;;;29.50;;
21091;SDS011;10704;42.678;23.288;2022-12-07T06:56:13;62.38;;;32.22;;
21091;SDS011;10704;42.678;23.288;2022-12-07T06:58:40;67.13;;;34.38;;
21091;SDS011;10704;42.678;23.288;2022-12-07T07:01:10;63.97;;;33.70;;
21091;SDS011;10704;42.678;23.288;2022-12-07T07:03:37;70.05;;;36.05;;
21091;SDS011;10704;42.678;23.288;2022-12-07T07:06:03;68.05;;;33.20;;
21091;SDS011;10704;42.678;23.288;2022-12-07T07:08:30;72.35;;;36.10;;
21091;SDS011;10704;42.678;23.288;2022-12-07T07:10:56;72.13;;;38.88;;
21091;SDS011;10704;42.678;23.288;2022-12-07T07:13:21;81.05;;;46.05;;
21091;SDS011;10704;42.678;23.288;2022-12-07T07:15:47;83.57;;;48.83;;
21091;SDS011;10704;42.678;23.288;2022-12-07T07:18:13;86.88;;;47.53;;
21091;SDS011;10704;42.678;23.288;2022-12-07T07:20:39;77.80;;;44.30;;
21091;SDS011;10704;42.678;23.288;2022-12-07T07:23:05;74.80;;;41.40;;
21091;SDS011;10704;42.678;23.288;2022-12-07T07:25:31;75.93;;;43.63;;
21091;SDS011;10704;42.678;23.288;2022-12-07T07:35:33;68.55;;;35.35;;
21091;SDS011;10704;42.678;23.288;2022-12-07T07:38:00;68.85;;;35.30;;
21091;SDS011;10704;42.678;23.288;2022-12-07T07:40:26;70.55;;;36.88;;
21091;SDS011;10704;42.678;23.288;2022-12-07T07:45:58;63.42;;;37.03;;
21091;SDS011;10704;42.678;23.288;2022-12-07T07:48:24;64.25;;;34.28;;
21091;SDS011;10704;42.678;23.288;2022-12-07T07:50:50;66.50;;;32.45;;
21091;SDS011;10704;42.678;23.288;2022-12-07T07:57:04;62.90;;;32.47;;
21091;SDS011;10704;42.678;23.288;2022-12-07T07:59:30;68.57;;;34.92;;
21091;SDS011;10704;42.678;23.288;2022-12-07T08:09:30;62.83;;;30.80;;
21091;SDS011;10704;42.678;23.288;2022-12-07T08:11:57;58.05;;;30.75;;
21091;SDS011;10704;42.678;23.288;2022-12-07T08:17:21;61.08;;;30.65;;
21091;SDS011;10704;42.678;23.288;2022-12-07T08:19:47;58.03;;;30.60;;
21091;SDS011;10704;42.678;23.288;2022-12-07T08:22:13;63.45;;;32.22;;
21091;SDS011;10704;42.678;23.288;2022-12-07T08:24:39;58.35;;;30.88;;
21091;SDS011;10704;42.678;23.288;2022-12-07T08:27:05;63.67;;;33.30;;
21091;SDS011;10704;42.678;23.288;2022-12-07T08:29:31;60.10;;;32.58;;
21091;SDS011;10704;42.678;23.288;2022-12-07T08:31:57;63.80;;;33.35;;
21091;SDS011;10704;42.678;23.288;2022-12-07T08:34:23;65.53;;;33.03;;
21091;SDS011;10704;42.678;23.288;2022-12-07T08:36:49;59.00;;;33.35;;
21091;SDS011;10704;42.678;23.288;2022-12-07T08:42:37;62.17;;;33.03;;
21091;SDS011;10704;42.678;23.288;2022-12-07T08:45:08;66.10;;;35.00;;
21091;SDS011;10704;42.678;23.288;2022-12-07T08:47:37;64.80;;;33.38;;
21091;SDS011;10704;42.678;23.288;2022-12-07T08:50:07;62.03;;;33.40;;
21091;SDS011;10704;42.678;23.288;2022-12-07T08:56:40;58.67;;;29.55;;
21091;SDS011;10704;42.678;23.288;2022-12-07T08:59:06;55.53;;;31.05;;
21091;SDS011;10704;42.678;23.288;2022-12-07T09:08:31;56.47;;;27.48;;
21091;SDS011;10704;42.678;23.288;2022-12-07T09:11:01;53.53;;;27.23;;
21091;SDS011;10704;42.678;23.288;2022-12-07T09:13:27;51.72;;;27.67;;
21091;SDS011;10704;42.678;23.288;2022-12-07T09:15:53;55.20;;;27.10;;
21091;SDS011;10704;42.678;23.288;2022-12-07T09:18:19;52.20;;;28.35;;
21091;SDS011;10704;42.678;23.288;2022-12-07T09:20:45;50.88;;;26.95;;
21091;SDS011;10704;42.678;23.288;2022-12-07T09:23:11;51.13;;;26.77;;
21091;SDS011;10704;42.678;23.288;2022-12-07T09:25:38;54.13;;;28.45;;
21091;SDS011;10704;42.678;23.288;2022-12-07T09:28:03;52.55;;;28.88;;
21091;SDS011;10704;42.678;23.288;2022-12-07T09:30:29;56.78;;;28.02;;
21091;SDS011;10704;42.678;23.288;2022-12-07T09:32:56;56.35;;;28.70;;
21091;SDS011;10704;42.678;23.288;2022-12-07T09:35:23;55.95;;;29.65;;
21091;SDS011;10704;42.678;23.288;2022-12-07T09:37:49;50.58;;;27.95;;
21091;SDS011;10704;42.678;23.288;2022-12-07T09:40:16;54.20;;;28.92;;
21091;SDS011;10704;42.678;23.288;2022-12-07T09:42:47;58.05;;;27.83;;
21091;SDS011;10704;42.678;23.288;2022-12-07T09:45:17;54.50;;;28.88;;
21091;SDS011;10704;42.678;23.288;2022-12-07T09:47:57;52.28;;;26.15;;
21091;SDS011;10704;42.678;23.288;2022-12-07T09:50:25;51.90;;;26.52;;
21091;SDS011;10704;42.678;23.288;2022-12-07T09:56:40;46.85;;;26.05;;
21091;SDS011;10704;42.678;23.288;2022-12-07T10:05:35;46.33;;;24.52;;
21091;SDS011;10704;42.678;23.288;2022-12-07T10:08:08;44.22;;;25.00;;
21091;SDS011;10704;42.678;23.288;2022-12-07T10:10:37;47.42;;;24.10;;
21091;SDS011;10704;42.678;23.288;2022-12-07T10:13:08;42.08;;;24.90;;
21091;SDS011;10704;42.678;23.288;2022-12-07T10:15:56;46.50;;;25.75;;
21091;SDS011;10704;42.678;23.288;2022-12-07T10:25:18;41.10;;;22.95;;
21091;SDS011;10704;42.678;23.288;2022-12-07T10:27:57;49.10;;;25.27;;
21091;SDS011;10704;42.678;23.288;2022-12-07T10:30:24;46.63;;;23.83;;
21091;SDS011;10704;42.678;23.288;2022-12-07T10:32:50;44.65;;;23.73;;
21091;SDS011;10704;42.678;23.288;2022-12-07T10:35:26;43.65;;;25.52;;
21091;SDS011;10704;42.678;23.288;2022-12-07T10:51:53;38.58;;;22.40;;
21091;SDS011;10704;42.678;23.288;2022-12-07T11:01:30;40.90;;;21.15;;
21091;SDS011;10704;42.678;23.288;2022-12-07T11:06:54;43.20;;;20.50;;
21091;SDS011;10704;42.678;23.288;2022-12-07T11:17:17;35.05;;;20.58;;
21091;SDS011;10704;42.678;23.288;2022-12-07T11:22:41;36.17;;;17.90;;
21091;SDS011;10704;42.678;23.288;2022-12-07T11:25:32;33.25;;;18.38;;
21091;SDS011;10704;42.678;23.288;2022-12-07T11:30:49;32.08;;;17.95;;
21091;SDS011;10704;42.678;23.288;2022-12-07T11:39:35;33.83;;;20.15;;
21091;SDS011;10704;42.678;23.288;2022-12-07T11:42:13;33.55;;;20.75;;
21091;SDS011;10704;42.678;23.288;2022-12-07T11:45:10;38.15;;;22.08;;
21091;SDS011;10704;42.678;23.288;2022-12-07T12:23:22;31.23;;;17.13;;
21091;SDS011;10704;42.678;23.288;2022-12-07T12:26:20;28.38;;;16.80;;
21091;SDS011;10704;42.678;23.288;2022-12-07T12:33:48;31.25;;;16.85;;
21091;SDS011;10704;42.678;23.288;2022-12-07T12:56:48;33.67;;;18.45;;
21091;SDS011;10704;42.678;23.288;2022-12-07T12:59:41;28.77;;;17.42;;
21091;SDS011;10704;42.678;23.288;2022-12-07T13:12:57;32.20;;;19.73;;
21091;SDS011;10704;42.678;23.288;2022-12-07T13:18:21;30.30;;;18.45;;
21091;SDS011;10704;42.678;23.288;2022-12-07T13:33:58;30.23;;;15.57;;
21091;SDS011;10704;42.678;23.288;2022-12-07T13:36:27;31.77;;;16.48;;
21091;SDS011;10704;42.678;23.288;2022-12-07T13:39:10;29.73;;;15.73;;
21091;SDS011;10704;42.678;23.288;2022-12-07T13:41:43;27.27;;;15.20;;
21091;SDS011;10704;42.678;23.288;2022-12-07T13:44:10;27.00;;;14.50;;
21091;SDS011;10704;42.678;23.288;2022-12-07T13:49:30;24.80;;;13.10;;
21091;SDS011;10704;42.678;23.288;2022-12-07T13:52:17;31.52;;;14.70;;
21091;SDS011;10704;42.678;23.288;2022-12-07T13:55:01;28.60;;;14.23;;
21091;SDS011;10704;42.678;23.288;2022-12-07T13:57:38;23.92;;;13.02;;
21091;SDS011;10704;42.678;23.288;2022-12-07T14:00:05;23.92;;;12.93;;
21091;SDS011;10704;42.678;23.288;2022-12-07T14:05:37;35.60;;;13.80;;
21091;SDS011;10704;42.678;23.288;2022-12-07T14:08:20;26.55;;;15.48;;
21091;SDS011;10704;42.678;23.288;2022-12-07T14:13:33;27.08;;;14.57;;
21091;SDS011;10704;42.678;23.288;2022-12-07T14:15:59;23.50;;;13.73;;
21091;SDS011;10704;42.678;23.288;2022-12-07T14:18:27;24.05;;;13.10;;
21091;SDS011;10704;42.678;23.288;2022-12-07T14:21:04;23.38;;;13.20;;
21091;SDS011;10704;42.678;23.288;2022-12-07T14:23:43;21.35;;;12.48;;
21091;SDS011;10704;42.678;23.288;2022-12-07T14:26:27;25.35;;;13.57;;
21091;SDS011;10704;42.678;23.288;2022-12-07T14:28:53;29.23;;;13.77;;
21091;SDS011;10704;42.678;23.288;2022-12-07T14:31:44;32.67;;;15.02;;
21091;SDS011;10704;42.678;23.288;2022-12-07T14:34:14;27.13;;;13.20;;
21091;SDS011;10704;42.678;23.288;2022-12-07T14:36:39;25.90;;;13.75;;
21091;SDS011;10704;42.678;23.288;2022-12-07T14:39:05;23.98;;;13.15;;
21091;SDS011;10704;42.678;23.288;2022-12-07T14:41:31;28.83;;;11.60;;
21091;SDS011;10704;42.678;23.288;2022-12-07T14:44:16;26.45;;;12.60;;
21091;SDS011;10704;42.678;23.288;2022-12-07T14:50:29;26.38;;;13.05;;
21091;SDS011;10704;42.678;23.288;2022-12-07T14:56:12;25.77;;;13.10;;
21091;SDS011;10704;42.678;23.288;2022-12-07T14:58:38;27.63;;;13.02;;
21091;SDS011;10704;42.678;23.288;2022-12-07T15:01:05;27.15;;;14.60;;
21091;SDS011;10704;42.678;23.288;2022-12-07T15:03:31;31.92;;;15.50;;
21091;SDS011;10704;42.678;23.288;2022-12-07T15:05:59;28.42;;;14.60;;
21091;SDS011;10704;42.678;23.288;2022-12-07T15:16:01;27.00;;;14.00;;
21091;SDS011;10704;42.678;23.288;2022-12-07T15:18:27;31.23;;;15.60;;
21091;SDS011;10704;42.678;23.288;2022-12-07T15:20:53;32.97;;;17.15;;
21091;SDS011;10704;42.678;23.288;2022-12-07T15:27:06;36.15;;;17.88;;
21091;SDS011;10704;42.678;23.288;2022-12-07T15:29:32;51.22;;;22.50;;
21091;SDS011;10704;42.678;23.288;2022-12-07T15:31:58;70.60;;;31.90;;
21091;SDS011;10704;42.678;23.288;2022-12-07T15:34:25;94.43;;;42.75;;
21091;SDS011;10704;42.678;23.288;2022-12-07T15:36:53;71.50;;;30.25;;
21091;SDS011;10704;42.678;23.288;2022-12-07T15:39:20;35.47;;;20.75;;
21091;SDS011;10704;42.678;23.288;2022-12-07T15:41:46;43.83;;;20.27;;
21091;SDS011;10704;42.678;23.288;2022-12-07T15:44:13;49.35;;;20.90;;
21091;SDS011;10704;42.678;23.288;2022-12-07T15:46:58;41.17;;;21.13;;
21091;SDS011;10704;42.678;23.288;2022-12-07T15:49:24;46.80;;;20.88;;
21091;SDS011;10704;42.678;23.288;2022-12-07T15:51:50;47.72;;;25.42;;
21091;SDS011;10704;42.678;23.288;2022-12-07T15:54:20;53.83;;;27.85;;
21091;SDS011;10704;42.678;23.288;2022-12-07T15:56:50;48.78;;;27.90;;
21091;SDS011;10704;42.678;23.288;2022-12-07T15:59:16;74.82;;;36.05;;
21091;SDS011;10704;42.678;23.288;2022-12-07T16:01:42;70.63;;;35.60;;
21091;SDS011;10704;42.678;23.288;2022-12-07T16:04:08;71.15;;;30.90;;
21091;SDS011;10704;42.678;23.288;2022-12-07T16:06:35;69.95;;;35.20;;
21091;SDS011;10704;42.678;23.288;2022-12-07T16:09:01;94.03;;;45.03;;
21091;SDS011;10704;42.678;23.288;2022-12-07T16:11:27;111.53;;;59.83;;
21091;SDS011;10704;42.678;23.288;2022-12-07T16:13:53;77.22;;;39.70;;
21091;SDS011;10704;42.678;23.288;2022-12-07T16:16:19;67.28;;;36.50;;
21091;SDS011;10704;42.678;23.288;2022-12-07T16:18:47;78.00;;;38.08;;
21091;SDS011;10704;42.678;23.288;2022-12-07T16:21:14;57.08;;;28.35;;
21091;SDS011;10704;42.678;23.288;2022-12-07T16:23:40;76.35;;;38.33;;
21091;SDS011;10704;42.678;23.288;2022-12-07T16:26:16;66.72;;;34.20;;
21091;SDS011;10704;42.678;23.288;2022-12-07T16:28:44;71.00;;;31.33;;
21091;SDS011;10704;42.678;23.288;2022-12-07T16:31:14;71.68;;;31.88;;
21091;SDS011;10704;42.678;23.288;2022-12-07T16:33:41;59.00;;;30.05;;
21091;SDS011;10704;42.678;23.288;2022-12-07T16:36:09;63.40;;;30.08;;
21091;SDS011;10704;42.678;23.288;2022-12-07T16:38:36;59.55;;;29.88;;
21091;SDS011;10704;42.678;23.288;2022-12-07T16:41:02;63.38;;;30.48;;
21091;SDS011;10704;42.678;23.288;2022-12-07T16:43:30;63.17;;;28.83;;
21091;SDS011;10704;42.678;23.288;2022-12-07T16:45:55;70.45;;;33.60;;
21091;SDS011;10704;42.678;23.288;2022-12-07T16:48:22;60.80;;;29.83;;
21091;SDS011;10704;42.678;23.288;2022-12-07T16:50:48;59.30;;;31.67;;
21091;SDS011;10704;42.678;23.288;2022-12-07T16:53:14;93.70;;;51.88;;
21091;SDS011;10704;42.678;23.288;2022-12-07T16:55:41;103.57;;;52.92;;
21091;SDS011;10704;42.678;23.288;2022-12-07T16:58:09;79.25;;;39.03;;
21091;SDS011;10704;42.678;23.288;2022-12-07T17:00:36;69.00;;;36.03;;
21091;SDS011;10704;42.678;23.288;2022-12-07T17:03:03;87.00;;;42.08;;
21091;SDS011;10704;42.678;23.288;2022-12-07T17:05:29;75.60;;;40.35;;
21091;SDS011;10704;42.678;23.288;2022-12-07T17:07:55;81.10;;;41.30;;
21091;SDS011;10704;42.678;23.288;2022-12-07T17:10:22;83.93;;;42.55;;
21091;SDS011;10704;42.678;23.288;2022-12-07T17:12:50;84.15;;;42.67;;
21091;SDS011;10704;42.678;23.288;2022-12-07T17:15:16;185.57;;;99.10;;
21091;SDS011;10704;42.678;23.288;2022-12-07T17:18:01;91.85;;;47.78;;
21091;SDS011;10704;42.678;23.288;2022-12-07T17:20:27;98.40;;;50.10;;
21091;SDS011;10704;42.678;23.288;2022-12-07T17:22:53;97.97;;;49.97;;
21091;SDS011;10704;42.678;23.288;2022-12-07T17:25:19;74.68;;;36.45;;
21091;SDS011;10704;42.678;23.288;2022-12-07T17:27:45;75.90;;;38.25;;
21091;SDS011;10704;42.678;23.288;2022-12-07T17:30:11;68.15;;;36.03;;
21091;SDS011;10704;42.678;23.288;2022-12-07T17:32:38;75.53;;;40.88;;
21091;SDS011;10704;42.678;23.288;2022-12-07T17:35:04;93.45;;;50.40;;
21091;SDS011;10704;42.678;23.288;2022-12-07T17:37:31;91.85;;;48.28;;
21091;SDS011;10704;42.678;23.288;2022-12-07T17:39:57;97.15;;;51.42;;
21091;SDS011;10704;42.678;23.288;2022-12-07T17:42:24;107.68;;;53.83;;
21091;SDS011;10704;42.678;23.288;2022-12-07T17:45:04;90.40;;;45.75;;
21091;SDS011;10704;42.678;23.288;2022-12-07T17:47:33;83.82;;;42.88;;
21091;SDS011;10704;42.678;23.288;2022-12-07T17:50:00;79.22;;;41.00;;
21091;SDS011;10704;42.678;23.288;2022-12-07T17:52:26;104.68;;;46.92;;
21091;SDS011;10704;42.678;23.288;2022-12-07T17:55:10;92.15;;;41.28;;
21091;SDS011;10704;42.678;23.288;2022-12-07T17:57:36;70.10;;;34.47;;
21091;SDS011;10704;42.678;23.288;2022-12-07T18:00:03;76.45;;;36.72;;
21091;SDS011;10704;42.678;23.288;2022-12-07T18:02:37;65.40;;;34.55;;
21091;SDS011;10704;42.678;23.288;2022-12-07T18:05:04;74.10;;;35.00;;
21091;SDS011;10704;42.678;23.288;2022-12-07T18:07:31;66.97;;;34.60;;
21091;SDS011;10704;42.678;23.288;2022-12-07T18:09:57;62.45;;;33.33;;
21091;SDS011;10704;42.678;23.288;2022-12-07T18:12:22;66.75;;;33.03;;
21091;SDS011;10704;42.678;23.288;2022-12-07T18:14:48;65.90;;;34.65;;
21091;SDS011;10704;42.678;23.288;2022-12-07T18:17:15;74.07;;;34.95;;
21091;SDS011;10704;42.678;23.288;2022-12-07T18:19:42;72.75;;;34.67;;
21091;SDS011;10704;42.678;23.288;2022-12-07T18:22:08;70.30;;;36.63;;
21091;SDS011;10704;42.678;23.288;2022-12-07T18:24:34;79.45;;;45.28;;
21091;SDS011;10704;42.678;23.288;2022-12-07T18:27:02;82.85;;;42.67;;
21091;SDS011;10704;42.678;23.288;2022-12-07T18:29:31;83.72;;;44.90;;
21091;SDS011;10704;42.678;23.288;2022-12-07T18:31:57;103.32;;;53.55;;
21091;SDS011;10704;42.678;23.288;2022-12-07T18:34:23;92.70;;;45.30;;
21091;SDS011;10704;42.678;23.288;2022-12-07T18:36:49;88.40;;;47.35;;
21091;SDS011;10704;42.678;23.288;2022-12-07T18:39:15;87.45;;;48.45;;
21091;SDS011;10704;42.678;23.288;2022-12-07T18:41:43;112.47;;;58.67;;
21091;SDS011;10704;42.678;23.288;2022-12-07T18:44:09;117.70;;;67.80;;
21091;SDS011;10704;42.678;23.288;2022-12-07T18:46:37;116.72;;;64.53;;
21091;SDS011;10704;42.678;23.288;2022-12-07T18:49:05;116.93;;;64.25;;
21091;SDS011;10704;42.678;23.288;2022-12-07T18:51:31;119.43;;;68.53;;
21091;SDS011;10704;42.678;23.288;2022-12-07T18:53:57;116.65;;;67.30;;
21091;SDS011;10704;42.678;23.288;2022-12-07T18:56:24;140.98;;;79.10;;
21091;SDS011;10704;42.678;23.288;2022-12-07T18:58:54;145.68;;;85.65;;
21091;SDS011;10704;42.678;23.288;2022-12-07T19:01:40;151.90;;;84.00;;
21091;SDS011;10704;42.678;23.288;2022-12-07T19:04:08;148.85;;;84.53;;
21091;SDS011;10704;42.678;23.288;2022-12-07T19:06:34;148.27;;;84.25;;
21091;SDS011;10704;42.678;23.288;2022-12-07T19:09:00;157.75;;;87.32;;
21091;SDS011;10704;42.678;23.288;2022-12-07T19:11:27;145.35;;;85.32;;
21091;SDS011;10704;42.678;23.288;2022-12-07T19:14:13;144.55;;;86.55;;
21091;SDS011;10704;42.678;23.288;2022-12-07T19:17:01;143.88;;;85.75;;
21091;SDS011;10704;42.678;23.288;2022-12-07T19:19:34;149.00;;;82.65;;
21091;SDS011;10704;42.678;23.288;2022-12-07T19:22:06;139.30;;;79.55;;
21091;SDS011;10704;42.678;23.288;2022-12-07T19:24:33;143.05;;;80.82;;
21091;SDS011;10704;42.678;23.288;2022-12-07T19:26:59;135.98;;;76.93;;
21091;SDS011;10704;42.678;23.288;2022-12-07T19:29:27;134.07;;;76.57;;
21091;SDS011;10704;42.678;23.288;2022-12-07T19:31:55;126.75;;;73.13;;
21091;SDS011;10704;42.678;23.288;2022-12-07T19:34:22;130.77;;;74.47;;
21091;SDS011;10704;42.678;23.288;2022-12-07T19:36:48;129.45;;;70.20;;
21091;SDS011;10704;42.678;23.288;2022-12-07T19:39:14;124.65;;;69.85;;
21091;SDS011;10704;42.678;23.288;2022-12-07T19:41:40;121.82;;;65.35;;
21091;SDS011;10704;42.678;23.288;2022-12-07T19:44:12;115.45;;;65.07;;
21091;SDS011;10704;42.678;23.288;2022-12-07T19:46:46;117.53;;;66.63;;
21091;SDS011;10704;42.678;23.288;2022-12-07T19:49:14;125.75;;;70.05;;
21091;SDS011;10704;42.678;23.288;2022-12-07T19:51:41;118.20;;;66.45;;
21091;SDS011;10704;42.678;23.288;2022-12-07T19:54:08;123.00;;;65.40;;